createdAt,value
2023-03-24T03:26:47.638Z,99337.87
2023-03-24T03:31:47.962Z,99341.16
2023-03-24T03:55:47.938Z,99350.77
2023-03-24T03:56:51.891Z,99354.78
2023-03-24T03:57:56.339Z,99350.39
2023-03-24T03:59:28.346Z,99352.23
2023-03-24T04:00:31.570Z,99349.67
2023-03-24T04:03:01.498Z,99358.52
2023-03-24T04:04:07.561Z,99356.14
2023-03-24T04:05:27.723Z,99360.06
2023-03-24T04:06:41.636Z,99364.26
2023-03-24T04:10:03.354Z,99356.67
2023-03-24T04:11:21.305Z,99361.06
2023-03-24T04:13:11.700Z,99360.34
2023-03-24T04:14:54.813Z,99361.45
2023-03-24T04:16:39.598Z,99364.42
2023-03-24T04:29:13.430Z,99368.08
2023-03-24T08:58:25.239Z,99416.53
2023-03-24T13:00:04.648Z,99265.12
2023-03-24T13:01:15.338Z,99257.17
2023-03-24T13:02:36.661Z,99258.50
2023-03-24T13:03:56.789Z,99256.81
2023-03-24T13:05:08.685Z,99254.80
2023-03-24T13:06:21.028Z,99254.80
2023-03-24T13:07:26.196Z,99252.27
2023-03-24T13:08:29.231Z,99256.81
2023-03-24T13:11:32.895Z,99245.38
2023-03-24T13:12:49.209Z,99251.08
2023-03-24T13:13:51.913Z,99248.06
2023-03-24T13:15:03.660Z,99248.23
2023-03-24T13:17:34.942Z,99249.47
2023-03-24T13:18:41.034Z,99245.89
2023-03-24T13:19:44.237Z,99245.24
2023-03-24T13:20:56.129Z,99251.81
2023-03-24T13:22:00.527Z,99248.45
2023-03-24T13:23:21.482Z,99238.85
2023-03-24T13:24:26.391Z,99242.04
2023-03-24T13:30:29.210Z,99237.98
2023-03-24T13:31:38.492Z,99234.13
2023-03-24T13:32:46.339Z,99234.64
2023-03-24T13:33:51.855Z,99234.66
2023-03-24T13:35:12.680Z,99227.39
2023-03-24T13:36:19.368Z,99226.20
2023-03-24T13:37:25.655Z,99225.67
2023-03-24T13:38:40.822Z,99228.04
2023-03-24T13:39:46.491Z,99230.58
2023-03-24T13:40:53.880Z,99231.09
2023-03-24T13:42:04.654Z,99229.23
2023-03-24T13:43:22.165Z,99222.80
2023-03-24T13:44:40.457Z,99216.02
2023-03-24T13:45:49.023Z,99231.22
2023-03-24T13:47:07.424Z,99215.68
2023-03-24T13:48:13.405Z,99229.20
2023-03-24T13:52:29.219Z,99211.25
2023-03-24T13:53:43.022Z,99216.02
2023-03-24T13:54:48.397Z,99215.84
2023-03-24T13:55:53.332Z,99210.27
2023-03-24T13:57:06.762Z,99214.66
2023-03-24T13:58:36.975Z,99216.35
2023-03-24T14:00:08.543Z,99213.82
2023-03-24T14:01:17.204Z,99207.23
2023-03-24T14:02:23.883Z,99213.31
2023-03-24T14:03:50.611Z,99210.61
2023-03-24T14:05:15.412Z,99216.02
2023-03-24T14:06:22.852Z,99210.61
2023-03-24T14:10:53.042Z,99208.75
2023-03-24T14:12:30.236Z,99207.56
2023-03-24T14:16:48.052Z,99202.53
2023-03-24T14:18:00.033Z,99205.23
2023-03-24T14:19:20.810Z,99205.91
2023-03-24T14:20:26.978Z,99203.56
2023-03-24T14:21:32.207Z,99203.06
2023-03-24T14:22:46.034Z,99199.17
2023-03-24T14:23:56.813Z,99204.27
2023-03-24T14:25:04.431Z,99189.19
2023-03-24T14:26:16.796Z,99188.69
2023-03-24T14:27:43.539Z,99193.58
2023-03-24T14:29:03.247Z,99193.06
2023-03-24T14:30:21.380Z,99187.02
2023-03-24T14:31:37.373Z,99196.30
2023-03-24T14:33:00.469Z,99183.28
2023-03-24T14:34:10.378Z,99195.44
2023-03-24T14:35:39.717Z,99190.39
2023-03-24T14:36:45.026Z,99191.73
2023-03-24T14:37:59.618Z,99188.35
2023-03-24T14:39:26.495Z,99178.73
2023-03-24T14:42:29.292Z,99186.84
2023-03-24T14:43:43.339Z,99185.64
2023-03-24T14:44:51.807Z,99179.23
2023-03-24T14:46:25.287Z,99181.25
2023-03-24T14:47:37.220Z,99181.41
2023-03-24T14:48:53.469Z,99180.56
2023-03-24T14:50:12.058Z,99176.38
2023-03-24T14:51:39.940Z,99181.94
2023-03-24T14:54:21.677Z,99171.81
2023-03-24T14:55:30.454Z,99178.69
2023-03-24T14:56:50.486Z,99174.13
2023-03-24T14:58:05.471Z,99180.58
2023-03-24T14:59:26.811Z,99177.87
2023-03-24T15:00:45.505Z,99181.58
2023-03-24T15:01:50.487Z,99181.58
2023-03-24T15:03:20.176Z,99179.89
2023-03-24T15:04:27.065Z,99170.95
2023-03-24T15:05:36.109Z,99167.41
2023-03-24T15:06:53.279Z,99177.52
2023-03-24T15:08:16.391Z,99167.73
2023-03-24T15:09:21.621Z,99173.13
2023-03-24T15:10:42.197Z,99171.44
2023-03-24T15:11:49.562Z,99169.91
2023-03-24T15:12:52.051Z,99170.07
2023-03-24T15:15:32.007Z,99159.80
2023-03-24T15:16:43.322Z,99164.64
2023-03-24T15:17:51.777Z,99162.78
2023-03-24T15:19:02.625Z,99155.70
2023-03-24T15:21:46.982Z,99169.42
2023-03-24T15:22:55.101Z,99167.98
2023-03-24T15:24:01.270Z,99164.28
2023-03-24T15:25:10.664Z,99167.14
2023-03-24T15:26:14.235Z,99167.14
2023-03-24T15:27:21.431Z,99171.69
2023-03-24T15:28:31.471Z,99170.00
2023-03-24T15:29:39.431Z,99167.30
2023-03-24T15:30:41.881Z,99162.91
2023-03-24T15:31:44.128Z,99167.49
2023-03-24T15:32:47.046Z,99166.65
2023-03-24T15:33:49.493Z,99164.95
2023-03-24T15:34:54.431Z,99180.30
2023-03-24T15:35:58.707Z,99162.42
2023-03-24T15:37:04.920Z,99164.44
2023-03-24T15:38:11.142Z,99168.14
2023-03-24T15:39:19.347Z,99168.14
2023-03-24T15:40:33.228Z,99169.31
2023-03-24T15:41:35.580Z,99167.61
2023-03-24T15:42:41.048Z,99167.61
2023-03-24T15:43:49.673Z,99170.31
2023-03-24T15:44:54.206Z,99174.02
2023-03-24T15:46:11.214Z,99175.02
2023-03-24T15:47:04.439Z,99173.33
2023-03-24T15:48:10.328Z,99177.03
2023-03-24T15:51:02.947Z,99164.95
2023-03-24T15:52:27.075Z,99175.17
2023-03-24T15:55:12.853Z,99169.67
2023-03-24T15:56:19.677Z,99181.73
2023-03-24T15:57:26.313Z,99172.63
2023-03-24T15:58:30.777Z,99175.33
2023-03-24T15:59:35.921Z,99173.80
2023-03-24T16:00:40.273Z,99170.09
2023-03-24T16:01:45.362Z,99169.25
2023-03-24T16:02:57.104Z,99170.25
2023-03-24T16:04:01.010Z,99176.66
2023-03-24T16:05:11.024Z,99174.97
2023-03-24T16:06:16.068Z,99175.16
2023-03-24T16:07:25.901Z,99171.61
2023-03-24T16:08:35.395Z,99171.77
2023-03-24T16:09:38.812Z,99169.92
2023-03-24T16:10:47.917Z,99179.02
2023-03-24T16:11:53.531Z,99177.33
2023-03-24T16:12:55.909Z,99182.72
2023-03-24T16:14:02.974Z,99185.58
2023-03-24T16:15:10.849Z,99183.88
2023-03-24T16:16:18.612Z,99177.64
2023-03-24T16:17:21.473Z,99174.95
2023-03-24T16:19:50.247Z,99190.83
2023-03-24T16:20:55.494Z,99191.95
2023-03-24T16:21:58.269Z,99194.45
2023-03-24T16:23:00.992Z,99194.45
2023-03-24T16:24:07.328Z,99194.45
2023-03-24T16:25:09.451Z,99195.46
2023-03-24T16:27:33.114Z,99178.17
2023-03-24T16:28:35.719Z,99196.28
2023-03-24T16:29:39.613Z,99185.34
2023-03-24T16:30:54.804Z,99195.12
2023-03-24T16:32:05.979Z,99190.73
2023-03-24T16:33:08.832Z,99195.12
2023-03-24T16:35:36.449Z,99192.13
2023-03-24T16:36:43.195Z,99199.45
2023-03-24T16:37:48.155Z,99195.75
2023-03-24T16:38:55.623Z,99188.50
2023-03-24T16:40:03.429Z,99194.75
2023-03-24T16:41:13.712Z,99192.05
2023-03-24T16:42:17.662Z,99199.29
2023-03-24T16:43:21.335Z,99194.05
2023-03-24T16:44:24.535Z,99193.21
2023-03-24T16:45:35.457Z,99193.21
2023-03-24T16:46:38.708Z,99194.22
2023-03-24T16:47:41.624Z,99189.67
2023-03-24T16:48:45.080Z,99190.67
2023-03-24T16:51:13.282Z,99191.10
2023-03-24T16:52:15.830Z,99186.94
2023-03-24T16:53:19.476Z,99189.48
2023-03-24T16:54:24.157Z,99193.02
2023-03-24T16:55:26.775Z,99195.72
2023-03-24T16:56:29.178Z,99195.88
2023-03-24T16:57:31.737Z,99190.48
2023-03-24T16:59:54.960Z,99197.56
2023-03-24T17:00:57.894Z,99203.96
2023-03-24T17:02:01.662Z,99198.73
2023-03-24T17:03:06.199Z,99206.66
2023-03-24T17:04:18.245Z,99199.57
2023-03-24T17:07:18.251Z,99201.58
2023-03-24T17:08:23.557Z,99212.20
2023-03-24T17:09:32.101Z,99199.73
2023-03-24T17:10:37.069Z,99203.58
2023-03-24T17:11:42.722Z,99205.28
2023-03-24T17:12:48.344Z,99198.19
2023-03-24T17:13:52.485Z,99197.34
2023-03-24T17:14:54.897Z,99199.31
2023-03-24T17:18:30.375Z,99201.13
2023-03-24T17:20:34.807Z,99194.59
2023-03-24T17:21:47.320Z,99203.52
2023-03-24T17:22:52.621Z,99198.13
2023-03-24T17:23:55.156Z,99199.98
2023-03-24T17:24:57.526Z,99199.98
2023-03-24T17:26:02.254Z,99202.83
2023-03-24T17:27:13.906Z,99203.67
2023-03-24T17:28:19.894Z,99205.52
2023-03-24T17:29:26.801Z,99206.37
2023-03-24T17:30:29.426Z,99206.37
2023-03-24T17:31:33.187Z,99205.52
2023-03-24T17:32:38.390Z,99203.67
2023-03-24T17:33:42.024Z,99201.98
2023-03-24T17:34:47.712Z,99205.67
2023-03-24T17:41:37.385Z,99209.69
2023-03-24T17:46:34.686Z,99209.52
2023-03-24T17:47:37.826Z,99211.72
2023-03-24T17:48:40.070Z,99204.64
2023-03-24T17:49:43.350Z,99215.41
2023-03-24T17:50:46.707Z,99220.80
2023-03-24T17:51:49.068Z,99219.80
2023-03-24T17:52:57.529Z,99216.57
2023-03-24T17:53:59.897Z,99216.41
2023-03-24T17:55:03.611Z,99208.48
2023-03-24T17:56:06.828Z,99212.03
2023-03-24T17:57:12.071Z,99204.25
2023-03-24T17:58:17.750Z,99213.19
2023-03-24T17:59:23.601Z,99209.64
2023-03-24T18:00:29.023Z,99215.19
2023-03-24T18:01:34.491Z,99212.34
2023-03-24T18:02:46.369Z,99208.95
2023-03-24T18:03:50.996Z,99211.64
2023-03-24T18:04:55.382Z,99213.48
2023-03-24T18:07:17.649Z,99209.37
2023-03-24T18:08:20.083Z,99216.64
2023-03-24T18:09:22.171Z,99216.34
2023-03-24T18:10:24.660Z,99223.42
2023-03-24T18:11:26.970Z,99212.64
2023-03-24T18:12:29.161Z,99211.64
2023-03-24T18:13:31.379Z,99225.95
2023-03-24T18:14:33.566Z,99219.73
2023-03-24T18:15:35.891Z,99221.42
2023-03-24T18:16:39.393Z,99218.72
2023-03-24T18:18:01.971Z,99223.11
2023-03-24T18:19:04.534Z,99225.95
2023-03-24T18:20:08.179Z,99223.11
2023-03-24T18:21:11.719Z,99215.19
2023-03-24T18:22:14.495Z,99220.42
2023-03-24T18:23:17.260Z,99221.42
2023-03-24T18:24:20.600Z,99222.42
2023-03-24T18:25:23.426Z,99218.03
2023-03-24T18:26:26.342Z,99221.73
2023-03-24T18:27:29.343Z,99224.27
2023-03-24T18:28:32.134Z,99223.42
2023-03-24T18:32:34.142Z,99222.50
2023-03-24T18:33:36.647Z,99224.37
2023-03-24T18:34:38.912Z,99222.38
2023-03-24T18:35:42.505Z,99224.91
2023-03-24T18:36:46.072Z,99223.06
2023-03-24T18:37:49.338Z,99220.38
2023-03-24T18:40:13.119Z,99222.65
2023-03-24T18:41:15.377Z,99229.77
2023-03-24T18:42:18.558Z,99224.37
2023-03-24T18:43:21.412Z,99224.06
2023-03-24T18:44:24.173Z,99224.06
2023-03-24T18:45:26.356Z,99230.30
2023-03-24T18:46:29.929Z,99231.15
2023-03-24T18:47:32.409Z,99224.06
2023-03-24T18:49:47.326Z,99223.11
2023-03-24T18:50:50.871Z,99229.38
2023-03-24T18:51:53.481Z,99230.06
2023-03-24T18:52:55.676Z,99225.53
2023-03-24T18:53:58.660Z,99227.38
2023-03-24T18:55:06.424Z,99224.53
2023-03-24T18:56:10.633Z,99238.84
2023-03-24T18:57:13.954Z,99232.61
2023-03-24T18:58:18.208Z,99233.45
2023-03-24T18:59:21.022Z,99230.61
2023-03-24T19:00:23.715Z,99230.61
2023-03-24T19:01:27.026Z,99230.61
2023-03-24T19:03:47.376Z,99222.11
2023-03-24T19:04:53.680Z,99228.38
2023-03-24T19:06:00.404Z,99229.06
2023-03-24T19:07:02.689Z,99230.77
2023-03-24T19:08:06.029Z,99228.06
2023-03-24T19:09:09.840Z,99228.91
2023-03-24T19:10:13.605Z,99237.69
2023-03-24T19:11:15.833Z,99229.77
2023-03-24T19:12:18.428Z,99230.77
2023-03-24T19:13:21.548Z,99227.06
2023-03-24T19:14:25.691Z,99229.77
2023-03-24T19:15:28.859Z,99233.45
2023-03-24T19:16:31.539Z,99228.06
2023-03-24T19:17:33.850Z,99228.06
2023-03-24T19:18:37.808Z,99222.68
2023-03-24T19:19:42.417Z,99225.38
2023-03-24T19:20:45.651Z,99224.68
2023-03-24T19:21:47.802Z,99231.06
2023-03-24T19:22:53.039Z,99223.98
2023-03-24T19:23:55.435Z,99226.68
2023-03-24T19:24:59.064Z,99229.52
2023-03-24T19:26:03.357Z,99224.14
2023-03-24T19:27:09.126Z,99230.38
2023-03-24T19:28:11.542Z,99221.59
2023-03-24T19:29:15.224Z,99225.29
2023-03-24T19:30:20.402Z,99219.06
2023-03-24T19:31:28.723Z,99225.29
2023-03-24T19:32:33.654Z,99220.24
2023-03-24T19:33:37.550Z,99228.32
2023-03-24T19:34:39.799Z,99217.70
2023-03-24T19:35:42.166Z,99219.70
2023-03-24T19:36:49.080Z,99225.08
2023-03-24T19:37:50.490Z,99216.16
2023-03-24T19:38:53.949Z,99218.00
2023-03-24T19:39:56.207Z,99213.47
2023-03-24T19:41:06.792Z,99210.08
2023-03-24T19:42:13.895Z,99203.84
2023-03-24T19:43:17.085Z,99215.47
2023-03-24T19:44:20.824Z,99206.69
2023-03-24T19:45:26.068Z,99205.00
2023-03-24T19:46:28.762Z,99206.00
2023-03-24T19:47:31.635Z,99208.69
2023-03-24T19:48:36.797Z,99197.92
2023-03-24T19:49:41.245Z,99201.61
2023-03-24T19:50:45.397Z,99207.84
2023-03-24T19:51:47.749Z,99207.84
2023-03-24T19:52:52.533Z,99202.61
2023-03-24T19:53:58.859Z,99190.84
2023-03-24T19:55:01.514Z,99196.23
2023-03-24T19:57:28.504Z,99194.16
2023-03-24T19:58:30.879Z,99192.48
2023-03-24T19:59:33.151Z,99191.48
2023-03-24T20:00:36.622Z,99193.17
2023-03-24T20:01:39.098Z,99191.48
2023-03-24T20:02:44.313Z,99186.09
2023-03-24T20:03:51.322Z,99194.33
2023-03-24T20:04:55.185Z,99189.79
2023-03-24T20:07:13.943Z,99181.77
2023-03-24T20:08:18.221Z,99184.50
2023-03-24T20:09:23.223Z,99182.47
2023-03-24T20:10:27.088Z,99183.31
2023-03-24T20:11:33.968Z,99181.62
2023-03-24T20:12:39.057Z,99179.96
2023-03-24T20:13:49.473Z,99178.27
2023-03-24T20:14:57.611Z,99172.04
2023-03-24T20:15:59.903Z,99178.27
2023-03-24T20:17:02.195Z,99172.89
2023-03-24T20:18:07.318Z,99164.11
2023-03-24T20:19:14.545Z,99169.50
2023-03-24T20:20:22.774Z,99174.88
2023-03-24T20:21:28.985Z,99171.50
2023-03-24T20:22:33.462Z,99159.88
2023-03-24T20:23:37.744Z,99166.11
2023-03-24T20:24:45.318Z,99160.73
2023-03-24T20:25:50.340Z,99160.73
2023-03-24T20:26:55.772Z,99164.42
2023-03-24T20:27:57.903Z,99165.11
2023-03-24T20:29:01.233Z,99160.73
2023-03-24T20:30:09.009Z,99160.73
2023-03-24T20:31:14.601Z,99155.34
2023-03-24T20:32:19.525Z,99154.66
2023-03-24T20:33:21.814Z,99155.34
2023-03-24T20:34:24.808Z,99147.27
2023-03-24T20:35:28.097Z,99149.97
2023-03-24T20:36:30.505Z,99148.97
2023-03-24T20:37:32.740Z,99148.12
2023-03-24T20:38:37.080Z,99151.66
2023-03-24T20:39:40.057Z,99152.50
2023-03-24T20:40:42.850Z,99142.58
2023-03-24T20:41:45.062Z,99141.89
2023-03-24T20:42:48.882Z,99137.34
2023-03-24T20:43:53.600Z,99146.27
2023-03-24T20:44:58.592Z,99136.50
2023-03-24T20:46:05.349Z,99139.34
2023-03-24T20:47:08.144Z,99136.66
2023-03-24T20:48:10.930Z,99142.04
2023-03-24T20:49:13.218Z,99135.81
2023-03-24T20:50:16.774Z,99138.50
2023-03-24T20:51:19.548Z,99139.34
2023-03-24T20:52:24.812Z,99134.96
2023-03-24T20:53:27.551Z,99132.42
2023-03-24T20:54:29.678Z,99121.96
2023-03-24T20:55:32.221Z,99134.42
2023-03-24T20:56:36.309Z,99127.34
2023-03-24T20:57:39.304Z,99127.34
2023-03-24T20:58:43.775Z,99128.34
2023-03-24T20:59:47.206Z,99128.34
2023-03-24T21:07:34.003Z,99122.66
2023-03-24T21:08:36.354Z,99129.04
2023-03-24T21:09:39.649Z,99122.30
2023-03-24T21:10:42.058Z,99125.27
2023-03-24T21:11:44.773Z,99129.95
2023-03-24T21:12:52.869Z,99123.87
2023-03-24T21:13:51.211Z,99128.56
2023-03-24T21:14:53.306Z,99117.80
2023-03-24T21:15:56.160Z,99118.80
2023-03-24T21:16:58.533Z,99122.48
2023-03-24T21:18:01.204Z,99121.64
2023-03-24T21:19:03.924Z,99124.33
2023-03-24T21:20:07.729Z,99121.78
2023-03-24T21:21:10.451Z,99120.79
2023-03-24T21:22:16.302Z,99119.28
2023-03-24T21:23:18.779Z,99117.59
2023-03-24T21:24:21.738Z,99117.59
2023-03-24T21:29:44.815Z,99113.91
2023-03-24T21:30:47.776Z,99116.59
2023-03-24T21:31:51.125Z,99117.05
2023-03-24T21:32:55.872Z,99119.04
2023-03-24T21:33:58.283Z,99114.66
2023-03-24T21:35:03.384Z,99112.27
2023-03-24T21:36:08.107Z,99111.57
2023-03-24T21:48:55.153Z,99096.38
2023-03-24T21:51:18.678Z,99107.28
2023-03-24T21:52:21.200Z,99105.07
2023-03-24T21:53:27.922Z,99097.00
2023-03-24T21:54:30.832Z,99101.35
2023-03-24T21:55:35.240Z,99103.38
2023-03-24T21:56:44.347Z,99102.68
2023-03-24T21:57:49.791Z,99103.67
2023-03-24T21:58:53.368Z,99096.61
2023-03-24T22:00:02.890Z,99100.29
2023-03-24T22:01:08.343Z,99096.91
2023-03-24T22:02:15.091Z,99099.74
2023-03-24T22:03:18.264Z,99096.20
2023-03-24T22:04:21.181Z,99101.73
2023-03-24T22:05:27.172Z,99100.89
2023-03-24T22:06:31.141Z,99095.66
2023-03-24T22:07:33.853Z,99095.84
2023-03-24T22:08:37.713Z,99098.53
2023-03-24T22:09:40.049Z,99092.45
2023-03-24T22:10:43.688Z,99089.77
2023-03-24T22:11:46.055Z,99090.77
2023-03-24T22:12:52.714Z,99087.37
2023-03-24T22:13:55.068Z,99087.52
2023-03-24T22:14:57.340Z,99091.20
2023-03-24T22:16:02.553Z,99072.39
2023-03-24T22:17:04.882Z,99075.23
2023-03-24T22:18:07.565Z,99082.59
2023-03-24T22:19:12.266Z,99087.97
2023-03-24T22:20:15.546Z,99085.43
2023-03-24T22:21:17.815Z,99088.45
2023-03-24T22:22:24.326Z,99090.29
2023-03-24T22:23:26.896Z,99086.76
2023-03-24T22:24:29.750Z,99079.84
2023-03-24T22:25:32.097Z,99081.83
2023-03-24T22:26:34.986Z,99081.83
2023-03-24T22:28:54.608Z,99088.97
2023-03-24T22:29:56.862Z,99089.11
2023-03-24T22:32:14.087Z,99081.53
2023-03-24T22:33:16.399Z,99093.09
2023-03-24T22:34:18.597Z,99097.47
2023-03-24T22:35:20.900Z,99085.72
2023-03-24T22:36:23.107Z,99084.73
2023-03-24T22:37:25.276Z,99084.73
2023-03-24T22:38:28.618Z,99082.19
2023-03-24T22:39:31.320Z,99080.50
2023-03-24T22:40:33.777Z,99070.59
2023-03-24T22:41:35.954Z,99069.05
2023-03-24T22:42:39.266Z,99070.89
2023-03-24T22:43:41.487Z,99065.52
2023-03-24T22:44:43.673Z,99061.14
2023-03-24T22:45:45.889Z,99066.62
2023-03-24T22:46:48.317Z,99056.72
2023-03-24T22:47:50.543Z,99064.93
2023-03-24T22:48:54.305Z,99060.58
2023-03-24T22:49:57.039Z,99063.27
2023-03-24T22:51:01.295Z,99064.09
2023-03-24T22:52:08.364Z,99065.95
2023-03-24T22:53:11.273Z,99054.36
2023-03-24T22:54:13.442Z,99054.36
2023-03-24T22:55:15.879Z,99060.73
2023-03-24T22:56:19.468Z,99065.11
2023-03-24T22:57:22.389Z,99059.89
2023-03-24T22:58:26.313Z,99064.41
2023-03-24T22:59:31.605Z,99060.73
2023-03-24T23:00:33.958Z,99062.57
2023-03-24T23:01:36.171Z,99060.73
2023-03-24T23:02:39.108Z,99055.36
2023-03-24T23:03:43.255Z,99063.42
2023-03-24T23:04:46.699Z,99063.27
2023-03-24T23:05:49.082Z,99059.73
2023-03-24T23:06:55.374Z,99057.05
2023-03-24T23:07:58.144Z,99063.09
2023-03-24T23:09:00.533Z,99056.02
2023-03-24T23:10:02.900Z,99055.87
2023-03-24T23:11:09.282Z,99055.77
2023-03-24T23:12:12.329Z,99049.39
2023-03-24T23:13:18.002Z,99059.30
2023-03-24T23:14:20.242Z,99055.61
2023-03-24T23:15:22.562Z,99054.77
2023-03-24T23:16:24.781Z,99056.46
2023-03-24T23:17:27.153Z,99060.00
2023-03-24T23:18:29.823Z,99057.30
2023-03-24T23:19:33.026Z,99052.78
2023-03-24T23:20:35.267Z,99062.53
2023-03-24T23:21:37.483Z,99052.78
2023-03-24T23:22:39.694Z,99056.16
2023-03-24T23:23:43.837Z,99056.46
2023-03-24T23:24:48.343Z,99049.95
2023-03-24T23:25:52.023Z,99054.47
2023-03-24T23:26:54.452Z,99062.53
2023-03-24T23:27:57.170Z,99046.56
2023-03-24T23:28:59.809Z,99049.09
2023-03-24T23:30:06.827Z,99046.41
2023-03-24T23:31:29.804Z,99051.78
2023-03-24T23:32:34.994Z,99039.34
2023-03-24T23:33:42.327Z,99043.72
2023-03-24T23:34:44.781Z,99036.66
2023-03-24T23:35:59.856Z,99038.34
2023-03-24T23:37:02.179Z,99042.03
2023-03-24T23:38:04.974Z,99040.05
2023-03-24T23:39:09.148Z,99045.42
2023-03-24T23:40:15.262Z,99042.73
2023-03-24T23:41:22.673Z,99041.73
2023-03-24T23:42:25.945Z,99043.58
2023-03-24T23:43:31.230Z,99041.03
2023-03-24T23:44:33.407Z,99035.66
2023-03-24T23:45:35.639Z,99036.66
2023-03-24T23:46:37.923Z,99031.98
2023-03-24T23:47:42.165Z,99039.20
2023-03-24T23:48:46.808Z,99033.82
2023-03-24T23:49:50.421Z,99035.95
2023-03-24T23:52:19.192Z,99034.44
2023-03-24T23:53:22.094Z,99034.02
2023-03-24T23:54:24.113Z,99028.48
2023-03-24T23:55:26.402Z,99035.38
2023-03-24T23:56:28.647Z,99031.84
2023-03-24T23:57:33.849Z,99023.63
2023-03-24T23:58:39.143Z,99014.06
2023-03-24T23:59:41.742Z,99016.75
